Time;durP1;ratioP1;P1;durP2;ratioP2;P2;SDS_P1;SDS_P2;PMS_P1;PMS_P2;Temp;Humidity;BMP_temperature;BMP_pressure;BME280_temperature;BME280_humidity;BME280_pressure;Samples;Min_cycle;Max_cycle;Signal;HPM_P1;HPM_P2
2021/06/10 07:00:52;;;;;;;2.55;1.85;;;33.30;73.10;;;;;;4962659;23;20735;-71
2021/06/10 07:03:19;;;;;;;2.65;1.92;;;33.80;72.70;;;;;;4958548;28;20208;-72
2021/06/10 07:05:45;;;;;;;3.50;2.38;;;33.70;72.90;;;;;;4970021;28;20203;-73
2021/06/10 07:08:11;;;;;;;4.70;1.92;;;33.80;71.90;;;;;;4954396;28;20216;-72
2021/06/10 07:10:37;;;;;;;3.67;2.17;;;34.00;72.30;;;;;;4937850;29;20236;-71
2021/06/10 07:13:05;;;;;;;2.72;2.17;;;33.70;72.00;;;;;;4937425;29;20682;-72
2021/06/10 07:15:31;;;;;;;2.45;1.77;;;33.70;71.70;;;;;;4937434;29;20209;-73
2021/06/10 07:17:59;;;;;;;2.95;1.63;;;34.00;73.10;;;;;;4950428;29;20590;-71
2021/06/10 07:20:25;;;;;;;3.42;1.80;;;34.10;71.20;;;;;;4956538;29;20697;-71
2021/06/10 07:22:52;;;;;;;1.95;1.75;;;34.00;71.80;;;;;;4956368;29;20615;-72
2021/06/10 07:25:18;;;;;;;5.78;2.08;;;33.70;73.40;;;;;;4956871;29;20208;-73
2021/06/10 07:27:45;;;;;;;2.97;1.50;;;34.40;73.50;;;;;;4956554;29;20246;-73
2021/06/10 07:30:13;;;;;;;2.67;1.98;;;34.40;72.20;;;;;;4956555;29;20251;-73
2021/06/10 07:32:39;;;;;;;2.40;1.73;;;34.70;71.90;;;;;;4956628;29;20220;-73
2021/06/10 07:35:08;;;;;;;2.33;1.73;;;35.20;69.70;;;;;;4956816;29;20204;-72
2021/06/10 07:37:35;;;;;;;2.83;1.52;;;35.30;68.90;;;;;;4956023;29;20686;-73
2021/06/10 07:40:01;;;;;;;2.72;1.65;;;35.00;69.90;;;;;;4956308;29;20255;-73
2021/06/10 07:42:27;;;;;;;2.35;1.58;;;34.70;69.30;;;;;;4956634;29;20216;-71
2021/06/10 07:44:54;;;;;;;3.83;1.27;;;34.90;69.20;;;;;;4956429;29;20348;-71
2021/06/10 07:47:20;;;;;;;5.05;2.50;;;34.80;69.70;;;;;;4956136;29;20230;-71
2021/06/10 07:49:46;;;;;;;1.60;1.05;;;34.40;68.60;;;;;;4955957;29;20576;-71
2021/06/10 07:52:14;;;;;;;2.40;0.88;;;34.00;66.60;;;;;;4956292;29;20211;-71
2021/06/10 07:54:40;;;;;;;2.22;0.82;;;33.50;66.80;;;;;;4971053;28;20550;-71
2021/06/10 07:57:08;;;;;;;6.45;1.02;;;33.70;67.60;;;;;;4939349;28;20232;-71
2021/06/10 07:59:35;;;;;;;1.83;0.90;;;33.40;65.60;;;;;;4936966;29;20221;-71
2021/06/10 08:02:02;;;;;;;1.38;0.70;;;33.60;64.20;;;;;;4936949;29;20213;-71
2021/06/10 08:04:30;;;;;;;5.57;0.88;;;33.50;64.70;;;;;;4936073;29;20223;-71
2021/06/10 08:06:56;;;;;;;9.15;1.17;;;33.30;66.90;;;;;;4936711;29;20229;-71
2021/06/10 08:09:24;;;;;;;9.30;0.80;;;32.80;64.70;;;;;;4936843;29;20228;-71
2021/06/10 08:11:50;;;;;;;3.28;0.70;;;32.30;67.80;;;;;;4936815;29;20310;-71
2021/06/10 08:14:17;;;;;;;2.08;0.95;;;31.80;67.70;;;;;;4936775;29;20630;-72
2021/06/10 08:16:43;;;;;;;5.10;1.10;;;31.50;66.80;;;;;;4936440;29;20229;-72
2021/06/10 08:19:09;;;;;;;4.03;0.90;;;31.50;67.00;;;;;;4936560;29;20217;-72
2021/06/10 08:21:36;;;;;;;2.65;0.80;;;32.20;68.80;;;;;;4936204;29;20215;-72
2021/06/10 08:24:02;;;;;;;3.65;0.70;;;32.80;65.60;;;;;;4936537;29;20213;-72
2021/06/10 08:26:29;;;;;;;2.75;0.52;;;33.50;64.70;;;;;;4936278;29;20261;-72
2021/06/10 08:28:56;;;;;;;1.98;0.73;;;33.40;63.20;;;;;;4936235;29;20219;-72
2021/06/10 08:31:22;;;;;;;2.30;0.90;;;33.70;62.20;;;;;;4936600;29;20209;-72
2021/06/10 08:33:49;;;;;;;0.93;0.50;;;33.20;64.10;;;;;;4936499;29;20209;-71
2021/06/10 08:48:43;;;;;;;4.93;0.90;;;33.80;62.60;;;;;;5163125;27;20552;-72
2021/06/10 08:51:11;;;;;;;2.97;0.70;;;32.80;65.10;;;;;;5117740;28;20205;-73
2021/06/10 08:53:38;;;;;;;1.58;0.60;;;32.80;66.90;;;;;;5110093;28;20206;-72
2021/06/10 08:56:05;;;;;;;1.88;0.50;;;32.40;63.90;;;;;;5109866;28;20610;-75
2021/06/10 08:58:33;;;;;;;4.82;0.57;;;32.30;66.30;;;;;;5124701;28;20261;-72
2021/06/10 09:01:00;;;;;;;1.25;0.60;;;32.70;66.90;;;;;;5130665;27;20193;-75
2021/06/10 09:03:29;;;;;;;1.20;0.60;;;32.60;66.80;;;;;;5130929;27;20205;-73
2021/06/10 09:06:06;;;;;;;0.98;0.60;;;32.60;66.40;;;;;;5130713;27;20555;-74
2021/06/10 09:08:32;;;;;;;2.03;0.68;;;32.70;67.00;;;;;;5130815;27;20201;-74
2021/06/10 09:11:07;;;;;;;2.05;0.50;;;32.20;69.40;;;;;;5131179;27;20471;-74
2021/06/10 09:13:39;;;;;;;3.15;0.63;;;31.70;66.00;;;;;;5130683;27;20197;-73
2021/06/10 09:16:23;;;;;;;4.70;0.60;;;31.20;66.60;;;;;;5126054;27;20225;-75
2021/06/10 09:18:56;;;;;;;7.10;0.60;;;30.80;68.00;;;;;;5115790;27;20210;-76
2021/06/10 09:21:36;;;;;;;2.08;0.40;;;30.60;67.40;;;;;;5109056;28;20202;-79
2021/06/10 09:24:18;;;;;;;0.82;0.40;;;30.40;68.10;;;;;;5108419;28;20205;-74
2021/06/10 09:26:46;;;;;;;2.05;0.47;;;30.20;67.70;;;;;;5118886;28;20225;-85
2021/06/10 09:29:13;;;;;;;2.28;0.43;;;30.40;70.20;;;;;;5129739;27;20201;-74
2021/06/10 09:31:40;;;;;;;1.10;0.50;;;30.90;68.90;;;;;;5130255;27;20197;-73
2021/06/10 09:34:13;;;;;;;4.25;0.60;;;31.10;65.00;;;;;;5130271;27;20201;-73
2021/06/10 09:36:47;;;;;;;1.58;0.47;;;31.10;65.40;;;;;;5130032;27;20232;-71
2021/06/10 09:39:17;;;;;;;2.10;0.60;;;31.00;65.20;;;;;;5129851;27;20269;-71
2021/06/10 09:42:01;;;;;;;1.38;0.50;;;31.10;65.80;;;;;;5129953;27;20243;-72
2021/06/10 09:44:41;;;;;;;6.13;0.50;;;31.30;70.00;;;;;;5130123;27;20212;-72
2021/06/10 09:47:08;;;;;;;1.75;0.50;;;30.90;64.90;;;;;;5116241;27;20675;-70
2021/06/10 09:49:34;;;;;;;0.55;0.40;;;30.80;64.10;;;;;;5114907;27;20203;-69
2021/06/10 09:52:02;;;;;;;1.80;0.60;;;30.70;64.50;;;;;;5116045;27;20201;-69
2021/06/10 09:54:39;;;;;;;2.50;0.60;;;30.50;66.40;;;;;;5116511;28;20201;-69
2021/06/10 09:57:06;;;;;;;2.83;0.68;;;30.10;68.00;;;;;;5116202;28;20237;-69
2021/06/10 09:59:47;;;;;;;2.15;0.50;;;30.10;70.60;;;;;;5116250;27;20198;-71
2021/06/10 10:02:18;;;;;;;4.05;0.52;;;30.00;69.80;;;;;;5115880;28;20679;-71
2021/06/10 10:05:07;;;;;;;3.03;0.50;;;29.80;68.90;;;;;;5116001;28;20205;-71
2021/06/10 10:07:37;;;;;;;1.30;0.40;;;29.80;70.50;;;;;;5115925;28;20221;-73
2021/06/10 10:10:06;;;;;;;0.50;0.40;;;29.80;68.30;;;;;;5115833;28;20251;-73
2021/06/10 10:12:33;;;;;;;1.77;0.40;;;29.30;67.00;;;;;;5115847;28;20197;-74
2021/06/10 10:15:00;;;;;;;0.52;0.38;;;29.00;69.40;;;;;;5115659;28;20202;-75
2021/06/10 10:17:27;;;;;;;2.38;0.60;;;28.70;69.90;;;;;;5115494;28;20234;-73
2021/06/10 10:19:55;;;;;;;1.80;0.52;;;28.50;74.70;;;;;;5115559;28;20656;-72
2021/06/10 10:22:22;;;;;;;1.35;0.70;;;28.40;78.50;;;;;;5115360;28;20208;-73
2021/06/10 10:24:53;;;;;;;1.10;0.52;;;28.20;77.20;;;;;;5115490;28;20206;-72
2021/06/10 10:27:19;;;;;;;7.97;1.08;;;28.10;80.90;;;;;;5115405;28;20225;-74
2021/06/10 10:29:48;;;;;;;2.63;0.57;;;28.00;82.00;;;;;;5115561;28;20204;-73
2021/06/10 10:32:20;;;;;;;2.72;0.65;;;27.90;80.30;;;;;;5115475;28;20598;-73
2021/06/10 10:34:46;;;;;;;2.50;0.60;;;27.80;81.60;;;;;;5115484;28;20209;-73
2021/06/10 10:37:24;;;;;;;1.08;0.60;;;27.80;80.80;;;;;;5115388;28;20233;-74
2021/06/10 10:39:53;;;;;;;1.50;0.60;;;27.50;82.10;;;;;;5115204;27;20208;-73
2021/06/10 10:42:35;;;;;;;1.75;0.57;;;27.30;82.90;;;;;;5115570;28;20209;-73
2021/06/10 10:45:17;;;;;;;1.20;0.60;;;27.40;83.40;;;;;;5115454;28;20206;-74
2021/06/10 10:47:47;;;;;;;6.50;1.63;;;27.40;84.90;;;;;;5114930;28;20232;-74
2021/06/10 10:50:18;;;;;;;2.40;0.70;;;27.40;82.80;;;;;;5114949;28;20206;-74
2021/06/10 10:52:53;;;;;;;0.77;0.50;;;27.00;78.50;;;;;;5114846;28;20656;-73
2021/06/10 10:55:28;;;;;;;0.75;0.60;;;26.90;81.00;;;;;;5115001;28;20698;-72
2021/06/10 10:58:06;;;;;;;0.75;0.65;;;27.00;81.40;;;;;;5114660;28;20230;-74
2021/06/10 11:00:50;;;;;;;1.42;0.50;;;26.90;80.80;;;;;;5113817;28;20292;-72
2021/06/10 11:03:29;;;;;;;34.72;3.55;;;26.90;81.10;;;;;;5114896;28;20210;-72
2021/06/10 11:05:57;;;;;;;2.83;0.50;;;27.00;83.50;;;;;;5114807;28;20205;-72
2021/06/10 11:08:26;;;;;;;0.80;0.52;;;26.90;80.20;;;;;;5115316;28;20727;-72
2021/06/10 11:11:02;;;;;;;1.38;0.68;;;26.90;78.60;;;;;;5114904;28;20208;-73
2021/06/10 11:13:46;;;;;;;0.90;0.50;;;26.90;82.30;;;;;;5114584;28;20201;-72
2021/06/10 11:16:14;;;;;;;1.33;0.60;;;26.70;82.10;;;;;;5115044;28;20222;-73
2021/06/10 11:18:52;;;;;;;4.90;0.95;;;26.70;85.00;;;;;;5114574;28;20652;-72
2021/06/10 11:21:51;;;;;;;3.85;1.00;;;26.70;80.60;;;;;;5114545;28;20201;-72
2021/06/10 11:24:19;;;;;;;6.18;0.90;;;26.70;78.90;;;;;;5114720;28;20281;-72
2021/06/10 11:27:03;;;;;;;0.90;0.70;;;26.80;81.80;;;;;;5114332;28;20237;-72
2021/06/10 11:29:30;;;;;;;1.92;0.80;;;26.80;83.70;;;;;;5105192;27;20202;-73
2021/06/10 11:32:25;;;;;;;1.20;0.80;;;27.00;85.40;;;;;;5112730;28;20205;-76
2021/06/10 11:34:53;;;;;;;2.05;0.80;;;26.90;84.40;;;;;;5093916;28;20198;-75
2021/06/10 11:37:25;;;;;;;1.55;1.00;;;27.00;84.10;;;;;;5111799;28;20274;-75
2021/06/10 11:39:52;;;;;;;1.67;0.70;;;27.10;83.50;;;;;;5113154;28;20537;-70
2021/06/10 11:42:23;;;;;;;1.20;0.80;;;27.20;82.00;;;;;;5113428;28;20202;-70
2021/06/10 11:44:50;;;;;;;3.45;0.60;;;27.30;84.50;;;;;;5091741;28;20293;-71
2021/06/10 11:47:36;;;;;;;1.70;0.95;;;27.40;83.50;;;;;;5093692;28;20239;-73
2021/06/10 11:50:21;;;;;;;3.67;1.00;;;27.20;83.10;;;;;;5093371;28;20614;-73
2021/06/10 11:52:51;;;;;;;2.70;0.82;;;27.20;82.90;;;;;;5111897;28;20251;-71
2021/06/10 11:55:17;;;;;;;2.65;1.02;;;27.30;82.30;;;;;;5113754;28;20208;-72
2021/06/10 11:57:53;;;;;;;0.88;0.82;;;27.20;81.30;;;;;;5113690;28;20221;-69
2021/06/10 12:00:26;;;;;;;0.73;0.73;;;27.20;81.70;;;;;;5113552;28;20197;-71
2021/06/10 12:02:55;;;;;;;7.57;0.90;;;27.30;77.40;;;;;;5106570;28;20247;-69
2021/06/10 12:05:22;;;;;;;2.80;0.88;;;27.30;81.20;;;;;;5093084;28;20346;-69
2021/06/10 12:07:48;;;;;;;4.05;1.10;;;27.30;82.60;;;;;;5093115;28;20332;-69
2021/06/10 12:10:17;;;;;;;1.05;0.77;;;27.20;83.50;;;;;;5091440;28;20645;-69
2021/06/10 12:12:47;;;;;;;7.13;0.88;;;27.30;81.90;;;;;;5111424;27;20197;-73
2021/06/10 12:15:36;;;;;;;3.78;1.10;;;27.40;87.70;;;;;;5113849;28;20209;-69
2021/06/10 12:18:04;;;;;;;1.20;0.75;;;27.60;87.20;;;;;;5113696;28;20229;-71
2021/06/10 12:20:32;;;;;;;3.92;0.95;;;27.50;82.20;;;;;;5113142;28;20259;-74
2021/06/10 12:22:59;;;;;;;1.23;0.70;;;27.50;80.80;;;;;;5113493;28;20200;-74
2021/06/10 12:25:28;;;;;;;1.25;0.90;;;27.50;81.20;;;;;;5109396;28;20212;-76
2021/06/10 12:27:57;;;;;;;1.20;0.80;;;26.90;86.40;;;;;;5112073;28;20233;-72
2021/06/10 12:30:31;;;;;;;0.60;0.55;;;27.00;85.20;;;;;;5110948;28;20201;-78
2021/06/10 12:33:18;;;;;;;3.50;0.70;;;27.20;83.10;;;;;;5097128;28;20548;-74
2021/06/10 12:35:46;;;;;;;1.67;0.70;;;27.30;84.70;;;;;;5111014;28;20250;-71
2021/06/10 12:38:13;;;;;;;8.00;0.93;;;27.40;82.60;;;;;;5111921;28;20250;-74
2021/06/10 12:40:41;;;;;;;7.45;1.40;;;27.40;82.60;;;;;;5111738;28;20250;-72
2021/06/10 12:43:16;;;;;;;70.32;4.97;;;27.60;84.80;;;;;;5110022;28;20209;-73
2021/06/10 12:45:42;;;;;;;3.88;0.93;;;27.50;80.50;;;;;;5111422;28;20222;-73
2021/06/10 12:48:22;;;;;;;8.60;1.20;;;27.60;81.90;;;;;;5107719;28;20233;-77
2021/06/10 12:50:49;;;;;;;1.20;0.80;;;27.60;82.00;;;;;;5111703;28;20224;-75
2021/06/10 12:53:17;;;;;;;1.40;0.88;;;27.70;79.70;;;;;;5111784;28;20206;-73
2021/06/10 12:55:44;;;;;;;8.50;0.90;;;27.70;77.50;;;;;;5111275;28;20255;-71
2021/06/10 12:58:16;;;;;;;3.70;1.42;;;27.80;80.40;;;;;;5106414;28;20271;-73
2021/06/10 13:00:43;;;;;;;5.68;1.10;;;27.60;81.50;;;;;;5091981;28;20248;-75
2021/06/10 13:03:12;;;;;;;15.77;1.98;;;27.60;84.20;;;;;;5098453;28;20652;-74
2021/06/10 13:05:39;;;;;;;2.33;1.55;;;27.50;83.20;;;;;;5111559;28;20527;-71
2021/06/10 13:08:06;;;;;;;1.50;0.90;;;27.60;83.10;;;;;;5100619;28;20299;-73
2021/06/10 13:10:38;;;;;;;3.17;1.00;;;27.60;81.20;;;;;;5090802;28;20688;-71
2021/06/10 13:13:06;;;;;;;3.05;1.10;;;27.50;82.70;;;;;;5098595;28;20289;-75
2021/06/10 13:15:35;;;;;;;3.67;1.00;;;27.50;82.60;;;;;;5111796;28;20206;-72
2021/06/10 13:18:03;;;;;;;3.28;1.83;;;27.50;83.60;;;;;;5110862;28;20222;-74
2021/06/10 13:20:44;;;;;;;4.60;1.50;;;27.60;84.50;;;;;;5111590;28;20241;-76
2021/06/10 13:23:14;;;;;;;7.32;2.55;;;27.60;83.90;;;;;;5112194;28;20205;-78
2021/06/10 13:25:41;;;;;;;6.05;2.17;;;27.60;86.80;;;;;;5113625;28;20210;-71
2021/06/10 13:28:12;;;;;;;3.92;1.20;;;27.70;83.60;;;;;;5106323;28;20582;-75
2021/06/10 13:30:40;;;;;;;1.50;0.93;;;27.70;81.60;;;;;;5115231;28;20212;-75
2021/06/10 13:33:07;;;;;;;1.25;0.90;;;27.60;82.90;;;;;;5114215;28;20606;-72
2021/06/10 13:35:40;;;;;;;3.33;1.00;;;27.50;81.00;;;;;;5113783;28;20668;-76
2021/06/10 13:38:07;;;;;;;2.30;1.00;;;27.50;82.50;;;;;;5115074;28;20218;-71
2021/06/10 13:40:34;;;;;;;2.25;0.73;;;27.50;81.60;;;;;;5114297;28;20214;-71
2021/06/10 13:43:00;;;;;;;0.80;0.70;;;27.50;80.80;;;;;;5115361;28;20451;-75
2021/06/10 13:45:30;;;;;;;1.30;0.95;;;27.30;80.30;;;;;;5105551;27;20206;-73
2021/06/10 13:47:58;;;;;;;0.60;0.60;;;27.40;82.90;;;;;;5103606;28;20583;-76
2021/06/10 13:50:25;;;;;;;2.55;0.90;;;27.50;83.10;;;;;;5115091;28;20198;-74
2021/06/10 13:52:52;;;;;;;3.60;0.85;;;27.40;82.40;;;;;;5114707;28;20357;-75
2021/06/10 13:55:19;;;;;;;1.95;1.05;;;27.50;81.80;;;;;;5098814;28;20214;-76
2021/06/10 13:57:46;;;;;;;1.38;1.13;;;27.60;86.00;;;;;;5102534;28;20218;-75
2021/06/10 14:00:13;;;;;;;2.00;1.00;;;27.80;82.20;;;;;;5114761;28;20206;-73
2021/06/10 14:02:40;;;;;;;1.60;1.10;;;27.90;82.10;;;;;;5114034;28;20204;-74
2021/06/10 14:05:09;;;;;;;9.80;1.30;;;27.90;83.40;;;;;;5114704;28;20198;-79
2021/06/10 14:07:36;;;;;;;6.45;1.35;;;27.90;83.70;;;;;;5107268;28;20242;-73
2021/06/10 14:10:03;;;;;;;2.40;0.77;;;27.90;83.90;;;;;;5093785;28;20206;-72
2021/06/10 14:12:29;;;;;;;1.00;0.80;;;28.00;83.60;;;;;;5095808;28;20305;-75
2021/06/10 14:14:56;;;;;;;1.10;1.00;;;27.90;83.40;;;;;;5114970;28;20240;-74
2021/06/10 14:17:22;;;;;;;2.60;0.75;;;27.90;81.90;;;;;;5113508;28;20222;-73
2021/06/10 14:19:49;;;;;;;1.42;0.80;;;27.70;83.20;;;;;;5114788;28;20288;-74
2021/06/10 14:22:17;;;;;;;4.53;1.45;;;27.80;84.00;;;;;;5094748;28;20202;-73
2021/06/10 14:24:43;;;;;;;1.67;1.05;;;28.00;84.30;;;;;;5113756;28;20213;-73
2021/06/10 14:27:16;;;;;;;14.88;2.67;;;28.10;83.20;;;;;;5114248;28;20225;-73
2021/06/10 14:29:45;;;;;;;31.75;5.75;;;28.20;84.00;;;;;;5114272;28;20597;-74
2021/06/10 14:32:21;;;;;;;3.28;1.10;;;28.30;84.60;;;;;;5113437;28;20205;-74
2021/06/10 14:34:49;;;;;;;1.65;0.70;;;28.30;82.50;;;;;;5113786;28;20204;-73
2021/06/10 14:37:17;;;;;;;3.33;1.10;;;28.30;83.90;;;;;;5113962;28;20264;-74
2021/06/10 14:39:45;;;;;;;13.20;2.60;;;28.20;84.70;;;;;;5113672;28;20634;-73
2021/06/10 14:42:12;;;;;;;8.38;2.50;;;28.00;85.10;;;;;;5114549;28;20979;-73
2021/06/10 14:44:38;;;;;;;3.10;1.20;;;27.90;85.80;;;;;;5113599;28;20522;-73
2021/06/10 14:47:05;;;;;;;2.83;0.90;;;27.90;86.20;;;;;;5112930;28;20652;-73
2021/06/10 14:49:32;;;;;;;4.50;1.00;;;28.00;85.90;;;;;;5095718;28;20214;-73
2021/06/10 14:51:58;;;;;;;1.10;0.88;;;28.00;87.10;;;;;;5093459;28;20247;-73
2021/06/10 14:54:26;;;;;;;1.38;1.15;;;28.10;84.30;;;;;;5110639;28;20636;-73
2021/06/10 14:56:52;;;;;;;31.55;6.60;;;28.00;85.10;;;;;;5112834;28;20225;-74
2021/06/10 14:59:18;;;;;;;2.88;1.10;;;28.00;87.00;;;;;;5113415;28;20659;-74
2021/06/10 15:01:45;;;;;;;6.75;1.50;;;28.10;86.00;;;;;;5113261;27;20286;-73
2021/06/10 15:04:11;;;;;;;1.67;1.00;;;28.10;85.70;;;;;;5113343;28;20561;-74
2021/06/10 15:06:38;;;;;;;2.33;1.02;;;28.10;85.50;;;;;;5113101;28;20757;-74
2021/06/10 15:09:05;;;;;;;1.20;0.60;;;28.00;86.50;;;;;;5093294;28;20244;-74
2021/06/10 15:11:32;;;;;;;1.33;0.80;;;28.00;86.90;;;;;;5092830;28;20710;-73
2021/06/10 15:13:59;;;;;;;1.58;0.98;;;28.00;85.60;;;;;;5107470;28;20262;-74
2021/06/10 15:16:25;;;;;;;1.27;0.90;;;28.00;89.00;;;;;;5111361;28;20221;-74
2021/06/10 15:18:52;;;;;;;1.17;0.88;;;28.10;88.90;;;;;;5113533;28;20209;-74
2021/06/10 15:21:19;;;;;;;2.92;1.10;;;28.00;88.50;;;;;;5112949;28;20282;-74
2021/06/10 15:23:47;;;;;;;4.72;1.40;;;28.00;87.40;;;;;;5112593;28;20201;-74
2021/06/10 15:26:14;;;;;;;2.58;0.88;;;28.10;88.10;;;;;;5113194;28;20308;-73
2021/06/10 15:28:41;;;;;;;2.55;0.77;;;28.10;86.10;;;;;;5112863;28;20232;-74
2021/06/10 15:31:08;;;;;;;1.50;0.80;;;28.10;87.40;;;;;;5112474;28;20530;-74
2021/06/10 15:33:34;;;;;;;1.25;0.90;;;28.00;86.30;;;;;;5113143;28;20197;-74
2021/06/10 15:36:01;;;;;;;1.48;0.80;;;28.00;87.70;;;;;;5112929;28;20223;-74
2021/06/10 15:38:27;;;;;;;1.25;0.70;;;28.00;87.80;;;;;;5112067;28;20220;-74
2021/06/10 15:40:54;;;;;;;2.55;1.80;;;28.10;85.80;;;;;;5112765;28;20201;-74
2021/06/10 15:43:20;;;;;;;2.00;0.80;;;28.30;87.00;;;;;;5113312;28;20205;-74
2021/06/10 15:45:48;;;;;;;1.00;0.90;;;28.30;87.40;;;;;;5111862;28;20201;-73
2021/06/10 15:48:14;;;;;;;1.20;0.80;;;28.40;86.90;;;;;;5112342;28;20236;-74
2021/06/10 15:50:40;;;;;;;1.08;0.75;;;28.50;85.90;;;;;;5112773;28;20652;-73
2021/06/10 15:53:07;;;;;;;2.20;0.90;;;28.60;86.60;;;;;;5112134;28;20682;-74
2021/06/10 15:55:34;;;;;;;2.88;0.77;;;28.60;85.90;;;;;;5112887;28;20202;-74
2021/06/10 15:58:00;;;;;;;1.23;0.95;;;28.60;86.30;;;;;;5112436;27;20274;-74
2021/06/10 16:00:26;;;;;;;0.98;0.88;;;28.60;86.20;;;;;;5111923;28;20204;-74
2021/06/10 16:02:54;;;;;;;1.05;0.80;;;28.60;86.80;;;;;;5112751;28;20202;-74
2021/06/10 16:05:23;;;;;;;2.30;0.70;;;28.70;88.10;;;;;;5112232;27;20208;-74
2021/06/10 16:07:51;;;;;;;1.48;0.75;;;28.70;88.50;;;;;;5112194;28;20336;-74
2021/06/10 16:10:18;;;;;;;1.10;0.80;;;28.60;86.20;;;;;;5112158;28;20201;-74
2021/06/10 16:12:46;;;;;;;2.38;0.82;;;28.60;86.40;;;;;;5112434;28;20205;-74
2021/06/10 16:15:13;;;;;;;1.08;0.70;;;28.60;87.20;;;;;;5112904;28;20201;-74
2021/06/10 16:17:40;;;;;;;1.33;0.70;;;28.40;86.80;;;;;;5113229;28;20631;-74
2021/06/10 16:20:10;;;;;;;4.72;0.90;;;28.30;86.80;;;;;;5113697;28;20202;-74
2021/06/10 16:22:37;;;;;;;1.65;0.90;;;28.30;86.30;;;;;;5113437;28;20202;-74
2021/06/10 16:25:05;;;;;;;2.03;0.80;;;28.30;88.00;;;;;;5113659;28;20209;-74
2021/06/10 16:27:32;;;;;;;1.25;1.00;;;28.40;87.90;;;;;;5113272;28;20229;-73
2021/06/10 16:29:58;;;;;;;2.75;1.30;;;28.60;87.10;;;;;;5112902;28;20212;-74
2021/06/10 16:32:24;;;;;;;1.55;1.17;;;28.50;86.80;;;;;;5113264;28;20227;-74
2021/06/10 16:34:50;;;;;;;4.57;1.30;;;28.60;87.30;;;;;;5113461;28;20205;-74
2021/06/10 16:37:20;;;;;;;1.23;1.13;;;28.50;85.70;;;;;;5113202;28;20683;-74
2021/06/10 16:39:46;;;;;;;1.25;0.90;;;28.30;87.60;;;;;;5113389;28;20202;-74
2021/06/10 16:42:12;;;;;;;1.17;0.73;;;28.40;87.90;;;;;;5113065;28;20331;-74
2021/06/10 16:44:39;;;;;;;3.33;1.17;;;28.40;87.80;;;;;;5113197;28;20220;-74
2021/06/10 16:47:05;;;;;;;3.70;1.52;;;28.30;87.00;;;;;;5112789;28;20714;-74
2021/06/10 16:49:32;;;;;;;1.55;0.80;;;28.20;89.00;;;;;;5113025;28;20246;-74
2021/06/10 16:51:58;;;;;;;1.25;0.93;;;28.10;87.20;;;;;;5113288;28;20338;-74
2021/06/10 16:54:26;;;;;;;1.25;0.98;;;27.90;88.60;;;;;;5113137;28;20205;-74
2021/06/10 16:56:52;;;;;;;1.52;0.80;;;28.00;86.90;;;;;;5113125;28;20240;-74
2021/06/10 16:59:19;;;;;;;3.05;0.90;;;28.00;86.20;;;;;;5113942;28;20208;-74
2021/06/10 17:01:54;;;;;;;1.63;1.00;;;28.00;89.20;;;;;;5112665;28;20201;-74
2021/06/10 17:04:21;;;;;;;2.78;0.98;;;27.90;88.30;;;;;;5117220;27;20674;-74
2021/06/10 17:06:50;;;;;;;2.15;1.15;;;27.90;89.40;;;;;;5116960;28;20342;-74
2021/06/10 17:09:18;;;;;;;1.45;0.80;;;27.90;88.10;;;;;;5117300;28;20598;-74
2021/06/10 17:11:47;;;;;;;1.20;1.00;;;27.90;89.40;;;;;;5096302;28;20212;-76
2021/06/10 17:14:14;;;;;;;1.65;1.08;;;27.90;89.40;;;;;;5096656;28;20207;-74
2021/06/10 17:16:41;;;;;;;1.42;0.90;;;27.90;88.30;;;;;;5096046;28;20300;-74
2021/06/10 17:19:09;;;;;;;1.20;0.90;;;27.70;89.60;;;;;;5109450;28;20201;-74
2021/06/10 17:21:36;;;;;;;1.17;0.93;;;27.70;89.00;;;;;;5096935;28;20598;-74
2021/06/10 17:24:03;;;;;;;1.30;1.00;;;27.60;90.40;;;;;;5095999;28;20255;-74
2021/06/10 17:26:30;;;;;;;1.85;0.80;;;27.60;90.00;;;;;;5096169;28;20227;-73
2021/06/10 17:28:59;;;;;;;0.93;0.80;;;27.50;90.90;;;;;;5096233;28;20222;-73
2021/06/10 17:31:26;;;;;;;0.90;0.70;;;27.40;90.80;;;;;;5095546;28;20363;-73
2021/06/10 17:33:52;;;;;;;0.82;0.70;;;27.20;91.80;;;;;;5096007;28;20602;-73
2021/06/10 17:36:18;;;;;;;0.98;0.75;;;27.20;91.00;;;;;;5096368;28;20229;-73
2021/06/10 17:38:44;;;;;;;1.30;0.70;;;27.20;91.10;;;;;;5095971;28;20206;-73
2021/06/10 17:41:12;;;;;;;2.83;1.27;;;27.20;91.00;;;;;;5095979;28;20263;-73
2021/06/10 17:43:38;;;;;;;1.30;0.90;;;27.20;90.50;;;;;;5095730;28;20616;-73
2021/06/10 17:46:06;;;;;;;1.05;0.65;;;27.20;91.40;;;;;;5095610;28;20203;-73
2021/06/10 17:48:32;;;;;;;0.93;0.60;;;27.20;91.30;;;;;;5095604;28;20261;-74
2021/06/10 17:50:59;;;;;;;1.13;0.80;;;27.30;91.30;;;;;;5095946;28;20199;-73
2021/06/10 17:53:25;;;;;;;1.38;0.88;;;27.30;91.10;;;;;;5096074;28;20211;-75
2021/06/10 17:55:53;;;;;;;0.90;0.80;;;27.30;90.90;;;;;;5110511;28;20219;-76
2021/06/10 17:58:20;;;;;;;1.02;0.88;;;27.30;89.80;;;;;;5103845;28;20241;-74
2021/06/10 18:00:46;;;;;;;1.20;0.90;;;27.30;91.00;;;;;;5094979;28;20229;-74
2021/06/10 18:03:14;;;;;;;0.80;0.73;;;27.20;90.90;;;;;;5095996;28;20210;-76
2021/06/10 18:05:41;;;;;;;1.23;0.70;;;27.10;91.40;;;;;;5095244;28;20210;-73
2021/06/10 18:08:08;;;;;;;2.30;0.70;;;27.00;91.20;;;;;;5095145;28;20810;-74
2021/06/10 18:10:34;;;;;;;2.42;1.10;;;26.90;91.30;;;;;;5095095;28;20252;-74
2021/06/10 18:13:01;;;;;;;1.40;0.95;;;26.80;91.50;;;;;;5095418;28;20202;-74
2021/06/10 18:15:29;;;;;;;1.00;0.60;;;26.80;91.60;;;;;;5095058;28;20238;-74
2021/06/10 18:17:55;;;;;;;1.73;1.00;;;26.70;91.40;;;;;;5095037;28;20231;-74
2021/06/10 18:20:23;;;;;;;1.20;0.80;;;26.70;91.20;;;;;;5094863;28;20203;-75
2021/06/10 18:22:51;;;;;;;9.88;0.93;;;26.60;91.80;;;;;;5094912;28;20210;-73
2021/06/10 18:25:19;;;;;;;1.20;0.68;;;26.40;92.10;;;;;;5094222;28;20203;-70
2021/06/10 18:27:45;;;;;;;0.60;0.50;;;26.40;92.00;;;;;;5113769;28;20595;-73
2021/06/10 18:30:13;;;;;;;0.88;0.70;;;26.50;92.20;;;;;;5115659;27;20569;-73
2021/06/10 18:32:40;;;;;;;1.23;1.00;;;26.50;92.30;;;;;;5115416;28;20202;-74
2021/06/10 18:35:08;;;;;;;1.17;0.80;;;26.40;92.30;;;;;;5115971;28;20729;-74
2021/06/10 18:37:36;;;;;;;1.30;0.77;;;26.40;92.60;;;;;;5115817;28;20222;-74
2021/06/10 18:40:04;;;;;;;1.40;0.60;;;26.50;92.50;;;;;;5115788;28;20224;-74
2021/06/10 18:42:30;;;;;;;1.13;0.70;;;26.50;92.20;;;;;;5115255;28;20209;-75
2021/06/10 18:44:57;;;;;;;0.93;0.68;;;26.40;92.60;;;;;;5115585;28;20197;-74
2021/06/10 18:47:23;;;;;;;0.88;0.60;;;26.30;92.80;;;;;;5114680;28;20233;-74
2021/06/10 18:49:50;;;;;;;2.88;1.00;;;26.10;92.90;;;;;;5115380;28;20202;-74
2021/06/10 18:52:17;;;;;;;2.50;0.98;;;26.00;93.20;;;;;;5115578;28;20216;-74
2021/06/10 18:54:44;;;;;;;0.82;0.70;;;26.00;93.40;;;;;;5115041;28;20682;-74
2021/06/10 18:57:11;;;;;;;1.00;0.80;;;26.00;93.60;;;;;;5114998;28;20221;-75
2021/06/10 18:59:38;;;;;;;1.33;0.73;;;26.10;93.00;;;;;;5115834;28;20205;-74
2021/06/10 19:02:05;;;;;;;1.65;0.85;;;26.00;92.90;;;;;;5115042;28;20262;-74
2021/06/10 19:04:32;;;;;;;0.80;0.80;;;26.00;93.40;;;;;;5115336;28;20210;-74
2021/06/10 19:06:58;;;;;;;0.93;0.88;;;25.90;93.80;;;;;;5115012;28;20711;-74
2021/06/10 19:09:24;;;;;;;1.60;0.82;;;25.90;94.20;;;;;;5115051;28;20668;-74
2021/06/10 19:11:52;;;;;;;3.28;2.20;;;25.80;94.50;;;;;;5115030;28;20266;-74
2021/06/10 19:14:19;;;;;;;3.63;1.92;;;25.50;96.00;;;;;;5114767;28;20564;-74
2021/06/10 19:16:45;;;;;;;5.32;2.40;;;25.50;96.70;;;;;;5114650;28;20225;-73
2021/06/10 19:19:11;;;;;;;5.10;2.38;;;25.30;97.70;;;;;;5115021;28;20212;-74
2021/06/10 19:21:37;;;;;;;3.75;2.50;;;25.20;98.20;;;;;;5113954;28;20270;-74
2021/06/10 19:24:04;;;;;;;3.90;2.80;;;25.00;98.60;;;;;;5114704;28;20561;-74
2021/06/10 19:26:30;;;;;;;6.50;3.20;;;24.90;99.10;;;;;;5114523;28;20222;-74
2021/06/10 19:28:58;;;;;;;7.70;3.00;;;24.70;99.90;;;;;;5114600;28;20708;-73
2021/06/10 19:31:24;;;;;;;7.00;2.58;;;24.50;99.90;;;;;;5114724;28;20265;-73
2021/06/10 19:33:58;;;;;;;5.25;2.67;;;24.40;99.90;;;;;;5114576;28;20202;-73
2021/06/10 19:36:24;;;;;;;6.20;2.42;;;24.10;99.90;;;;;;5114188;28;20225;-73
2021/06/10 19:38:51;;;;;;;4.63;2.60;;;24.00;99.90;;;;;;5114599;28;20228;-73
2021/06/10 19:41:17;;;;;;;3.80;2.00;;;23.90;99.90;;;;;;5114466;27;20212;-73
2021/06/10 19:43:44;;;;;;;3.15;1.83;;;23.80;99.90;;;;;;5114211;28;20205;-73
2021/06/10 19:46:12;;;;;;;4.22;1.67;;;23.60;99.90;;;;;;5113930;28;20719;-73
2021/06/10 19:48:38;;;;;;;2.80;1.60;;;23.60;99.90;;;;;;5114405;28;20234;-73
2021/06/10 19:51:06;;;;;;;2.28;1.40;;;23.40;99.90;;;;;;5114235;28;20224;-73
2021/06/10 19:53:33;;;;;;;2.75;1.77;;;23.30;99.90;;;;;;5114205;28;20202;-73
2021/06/10 19:56:00;;;;;;;2.63;1.75;;;23.20;99.90;;;;;;5113902;28;20202;-73
2021/06/10 19:58:26;;;;;;;3.70;1.42;;;23.10;99.90;;;;;;5114042;28;20262;-73
2021/06/10 20:00:54;;;;;;;4.50;1.58;;;23.00;99.90;;;;;;5113608;28;20227;-73
2021/06/10 20:03:24;;;;;;;2.80;1.55;;;22.90;99.90;;;;;;5113960;28;20205;-73
2021/06/10 20:05:51;;;;;;;2.17;1.45;;;22.80;99.90;;;;;;5113977;28;20201;-73